Time;durP1;ratioP1;P1;durP2;ratioP2;P2;SDS_P1;SDS_P2;PMS_P1;PMS_P2;Temp;Humidity;BMP_temperature;BMP_pressure;BME280_temperature;BME280_humidity;BME280_pressure;Samples;Min_cycle;Max_cycle;Signal;HPM_P1;HPM_P2
2023/10/13 00:01:11;;;;;;;39.20;29.77;;;14.70;99.90;;;;;;5018782;28;20447;-69
2023/10/13 00:03:40;;;;;;;39.80;30.87;;;14.80;99.90;;;;;;5036948;28;20524;-70
2023/10/13 00:06:08;;;;;;;38.07;29.40;;;14.80;99.90;;;;;;5036192;28;20486;-70
2023/10/13 00:08:39;;;;;;;37.13;29.17;;;14.80;99.90;;;;;;5036186;28;20449;-70
2023/10/13 00:11:13;;;;;;;35.63;29.77;;;14.90;99.90;;;;;;5036499;28;20419;-69
2023/10/13 00:13:50;;;;;;;38.50;29.47;;;14.90;99.90;;;;;;5036140;28;20478;-69
2023/10/13 00:16:21;;;;;;;40.27;30.50;;;14.90;99.90;;;;;;5036475;28;20501;-69
2023/10/13 00:18:54;;;;;;;41.70;30.53;;;14.90;99.90;;;;;;5037447;28;20430;-70
2023/10/13 00:21:31;;;;;;;36.20;27.50;;;15.00;99.90;;;;;;5036797;28;20438;-70
2023/10/13 00:24:01;;;;;;;39.67;29.10;;;15.00;99.90;;;;;;5036676;28;20455;-69
2023/10/13 00:26:31;;;;;;;39.30;29.20;;;15.00;99.90;;;;;;5036874;28;20455;-70
2023/10/13 00:29:08;;;;;;;41.33;30.53;;;15.00;99.90;;;;;;5036015;28;20561;-70
2023/10/13 00:31:48;;;;;;;39.33;30.10;;;15.00;99.90;;;;;;5036274;28;20470;-69
2023/10/13 00:34:19;;;;;;;36.03;28.50;;;15.10;99.90;;;;;;5036314;28;20423;-70
2023/10/13 00:37:11;;;;;;;40.07;30.10;;;15.10;99.90;;;;;;5035558;28;20477;-70
2023/10/13 00:39:40;;;;;;;38.40;29.90;;;15.10;99.90;;;;;;5017815;28;20447;-69
2023/10/13 00:42:18;;;;;;;41.33;31.67;;;15.10;99.90;;;;;;5016572;28;20424;-69
2023/10/13 00:44:48;;;;;;;38.53;30.80;;;15.10;99.90;;;;;;5017584;28;20520;-70
2023/10/13 00:47:36;;;;;;;40.50;29.83;;;15.20;99.90;;;;;;5017377;28;21011;-70
2023/10/13 00:50:10;;;;;;;40.60;30.87;;;15.20;99.90;;;;;;5035370;28;20438;-69
2023/10/13 00:52:41;;;;;;;42.97;30.53;;;15.20;99.90;;;;;;5017508;28;20427;-70
2023/10/13 00:55:12;;;;;;;42.77;31.70;;;15.20;99.90;;;;;;5017473;28;20821;-70
2023/10/13 00:57:41;;;;;;;43.30;31.40;;;15.30;99.90;;;;;;5035513;28;20843;-69
2023/10/13 01:00:18;;;;;;;41.40;32.07;;;15.30;99.90;;;;;;5035449;28;20427;-69
2023/10/13 01:02:54;;;;;;;51.50;33.03;;;15.30;99.90;;;;;;5017421;28;20489;-69
2023/10/13 01:05:24;;;;;;;49.00;33.60;;;15.30;99.90;;;;;;5017246;28;20569;-69
2023/10/13 01:07:54;;;;;;;48.57;35.20;;;15.30;99.90;;;;;;5035025;28;20445;-70
2023/10/13 01:10:26;;;;;;;46.70;33.00;;;15.40;99.90;;;;;;5035300;28;20394;-69
2023/10/13 01:12:55;;;;;;;46.33;35.60;;;15.40;99.90;;;;;;5035191;28;20505;-69
2023/10/13 01:15:29;;;;;;;48.33;35.90;;;15.40;99.90;;;;;;5034915;28;20561;-69
2023/10/13 01:18:11;;;;;;;49.27;36.07;;;15.40;99.90;;;;;;5017674;28;20438;-69
2023/10/13 01:20:43;;;;;;;50.97;37.07;;;15.50;99.90;;;;;;5035426;28;20849;-69
2023/10/13 01:23:18;;;;;;;53.30;37.10;;;15.50;99.90;;;;;;5017044;28;20471;-69
2023/10/13 01:25:46;;;;;;;44.40;35.10;;;15.50;99.90;;;;;;5016878;28;21041;-69
2023/10/13 01:28:16;;;;;;;46.87;33.97;;;15.60;99.90;;;;;;5034678;28;20435;-69
2023/10/13 01:30:49;;;;;;;51.40;35.53;;;15.60;99.90;;;;;;5034623;28;20453;-69
2023/10/13 01:33:25;;;;;;;46.37;32.63;;;15.60;99.90;;;;;;5016869;28;20443;-69
2023/10/13 01:35:55;;;;;;;49.43;36.13;;;15.60;99.90;;;;;;5016732;28;20463;-69
2023/10/13 01:38:28;;;;;;;50.80;34.80;;;15.60;99.90;;;;;;5034399;28;20445;-69
2023/10/13 01:40:56;;;;;;;46.20;32.23;;;15.70;99.90;;;;;;5016710;28;20447;-69
2023/10/13 01:43:25;;;;;;;42.77;32.07;;;15.70;99.90;;;;;;5016651;28;20447;-69
2023/10/13 01:45:53;;;;;;;45.93;32.07;;;15.70;99.90;;;;;;5016500;28;20489;-69
2023/10/13 01:48:21;;;;;;;41.43;31.30;;;15.70;99.90;;;;;;5034218;28;20450;-69
2023/10/13 01:50:55;;;;;;;41.13;31.17;;;15.70;99.90;;;;;;5034286;28;20447;-69
2023/10/13 01:53:28;;;;;;;38.57;29.33;;;15.80;99.90;;;;;;5034021;28;20423;-69
2023/10/13 01:55:57;;;;;;;39.37;30.60;;;15.80;99.90;;;;;;5034287;28;20524;-69
2023/10/13 01:58:29;;;;;;;38.20;29.70;;;15.80;99.90;;;;;;5034042;28;20427;-69
2023/10/13 02:00:56;;;;;;;42.53;32.70;;;15.80;99.90;;;;;;5016373;28;20456;-69
2023/10/13 02:03:27;;;;;;;47.67;34.17;;;15.90;99.90;;;;;;5016240;28;20952;-69
2023/10/13 02:05:57;;;;;;;41.10;31.60;;;15.90;99.90;;;;;;5016084;28;20487;-69
2023/10/13 02:08:26;;;;;;;46.03;33.77;;;15.90;99.90;;;;;;5016308;28;20517;-69
2023/10/13 02:10:55;;;;;;;41.33;31.93;;;15.90;99.90;;;;;;5016126;28;20550;-69
2023/10/13 02:13:25;;;;;;;45.83;33.27;;;16.00;99.90;;;;;;5016233;28;20425;-69
2023/10/13 02:15:56;;;;;;;46.77;34.03;;;16.00;99.90;;;;;;5033646;28;20510;-69
2023/10/13 02:18:33;;;;;;;46.90;34.20;;;16.00;99.90;;;;;;5016052;28;20850;-69
2023/10/13 02:21:04;;;;;;;46.67;35.33;;;16.00;99.90;;;;;;5015997;28;20442;-69
2023/10/13 02:23:38;;;;;;;50.63;36.90;;;16.00;99.90;;;;;;5034189;28;20416;-69
2023/10/13 02:26:11;;;;;;;45.13;33.80;;;16.00;99.90;;;;;;5033817;28;21052;-69
2023/10/13 02:28:39;;;;;;;55.97;36.63;;;16.00;99.90;;;;;;5015826;28;20493;-69
2023/10/13 02:31:07;;;;;;;47.13;34.43;;;16.10;99.90;;;;;;5015843;28;20458;-69
2023/10/13 02:33:44;;;;;;;52.30;38.23;;;16.10;99.90;;;;;;5015809;28;20435;-69
2023/10/13 02:36:13;;;;;;;57.57;39.80;;;16.10;99.90;;;;;;5015627;28;20521;-69
2023/10/13 02:38:46;;;;;;;53.40;37.17;;;16.10;99.90;;;;;;5015707;28;20927;-69
2023/10/13 02:41:25;;;;;;;55.20;37.37;;;16.10;99.90;;;;;;5033681;28;20431;-69
2023/10/13 02:43:54;;;;;;;54.93;39.17;;;16.20;99.90;;;;;;5033666;28;20896;-69
2023/10/13 02:46:23;;;;;;;51.30;37.20;;;16.20;99.90;;;;;;5033768;28;20502;-69
2023/10/13 02:48:53;;;;;;;55.17;37.20;;;16.20;99.90;;;;;;5015413;28;20436;-69
2023/10/13 02:51:25;;;;;;;51.37;38.00;;;16.20;99.90;;;;;;5015644;28;20438;-69
2023/10/13 02:54:02;;;;;;;53.80;39.50;;;16.20;99.90;;;;;;5033299;28;20740;-69
2023/10/13 02:56:29;;;;;;;55.90;38.43;;;16.30;99.90;;;;;;5015480;28;20513;-69
2023/10/13 02:58:57;;;;;;;50.50;35.83;;;16.30;99.90;;;;;;5015508;28;20800;-69
2023/10/13 03:01:33;;;;;;;58.27;37.60;;;16.30;99.90;;;;;;5015666;28;20496;-69
2023/10/13 03:04:03;;;;;;;51.87;37.40;;;16.30;99.90;;;;;;5033903;28;20460;-69
2023/10/13 03:06:33;;;;;;;54.10;37.60;;;16.30;99.90;;;;;;5019339;28;20541;-69
2023/10/13 03:09:14;;;;;;;50.97;37.47;;;16.30;99.90;;;;;;5019649;28;20816;-69
2023/10/13 03:11:42;;;;;;;50.87;37.60;;;16.30;99.90;;;;;;5037200;28;20423;-69
2023/10/13 03:14:23;;;;;;;49.40;37.10;;;16.40;99.90;;;;;;5037315;28;20439;-69
2023/10/13 03:16:52;;;;;;;52.00;38.43;;;16.40;99.90;;;;;;5037164;28;20481;-69
2023/10/13 03:19:20;;;;;;;48.17;36.17;;;16.40;99.90;;;;;;5037090;28;20489;-69
2023/10/13 03:21:54;;;;;;;50.63;35.70;;;16.40;99.90;;;;;;5037016;28;20420;-69
2023/10/13 03:24:33;;;;;;;50.73;36.13;;;16.40;99.90;;;;;;5019200;28;20436;-69
2023/10/13 03:27:08;;;;;;;47.03;34.20;;;16.40;99.90;;;;;;5019136;28;20469;-70
2023/10/13 03:29:38;;;;;;;47.93;34.80;;;16.40;99.90;;;;;;5019215;28;20463;-70
2023/10/13 03:32:11;;;;;;;50.83;35.10;;;16.50;99.90;;;;;;5019110;28;20417;-70
2023/10/13 03:34:52;;;;;;;46.80;34.80;;;16.50;99.90;;;;;;5037367;28;20401;-70
2023/10/13 03:37:37;;;;;;;44.80;34.87;;;16.50;99.90;;;;;;5036676;28;20425;-70
2023/10/13 03:40:34;;;;;;;47.90;34.77;;;16.50;99.90;;;;;;5037002;28;20984;-70
2023/10/13 03:43:04;;;;;;;45.70;31.83;;;16.50;99.90;;;;;;5036506;28;20947;-70
2023/10/13 03:45:37;;;;;;;46.60;33.00;;;16.50;99.90;;;;;;5018628;28;20456;-69
2023/10/13 03:48:09;;;;;;;42.77;31.80;;;16.50;99.90;;;;;;5036793;28;20478;-69
2023/10/13 03:50:46;;;;;;;44.83;31.43;;;16.50;99.90;;;;;;5036791;28;20427;-70
2023/10/13 03:53:14;;;;;;;45.70;31.87;;;16.60;99.90;;;;;;5036461;28;20764;-70
2023/10/13 03:55:48;;;;;;;37.77;30.73;;;16.60;99.90;;;;;;5036373;28;20465;-70
2023/10/13 03:58:17;;;;;;;42.27;31.40;;;16.60;99.90;;;;;;5036633;28;20393;-70
2023/10/13 04:00:46;;;;;;;45.20;31.00;;;16.60;99.90;;;;;;5036548;28;20448;-70
2023/10/13 04:03:16;;;;;;;44.37;33.80;;;16.60;99.90;;;;;;5036352;28;20416;-69
2023/10/13 04:06:00;;;;;;;45.20;31.90;;;16.60;99.90;;;;;;5036632;28;20461;-70
2023/10/13 04:08:49;;;;;;;43.63;32.23;;;16.60;99.90;;;;;;5036466;28;20422;-70
2023/10/13 04:14:24;;;;;;;40.00;32.10;;;16.60;99.90;;;;;;5036074;28;20393;-69
2023/10/13 04:16:54;;;;;;;40.27;31.40;;;16.60;99.90;;;;;;5035913;28;20440;-69
2023/10/13 04:19:29;;;;;;;38.30;30.73;;;16.60;99.90;;;;;;5036050;28;20394;-70
2023/10/13 04:22:13;;;;;;;38.93;31.50;;;16.60;99.90;;;;;;5036184;28;20433;-70
2023/10/13 04:30:24;;;;;;;48.27;32.77;;;16.70;99.90;;;;;;5035227;28;20413;-70
2023/10/13 04:33:15;;;;;;;41.90;33.00;;;16.60;99.90;;;;;;5035751;28;20935;-70
2023/10/13 04:35:58;;;;;;;44.77;33.60;;;16.60;99.90;;;;;;5036078;28;20450;-70
2023/10/13 04:38:33;;;;;;;42.93;32.40;;;16.60;99.90;;;;;;5018360;28;20427;-70
2023/10/13 04:41:10;;;;;;;43.70;32.00;;;16.60;99.90;;;;;;5035592;28;20421;-70
2023/10/13 04:46:35;;;;;;;40.23;32.20;;;16.60;99.90;;;;;;5035553;28;20561;-70
2023/10/13 04:49:09;;;;;;;41.17;30.80;;;16.70;99.90;;;;;;5035376;28;20793;-70
2023/10/13 04:51:59;;;;;;;42.27;31.43;;;16.70;99.90;;;;;;5035460;28;20493;-69
2023/10/13 04:54:32;;;;;;;35.93;29.47;;;16.70;99.90;;;;;;5035341;28;20416;-70
2023/10/13 05:44:53;;;;;;;42.40;31.60;;;16.80;99.90;;;;;;5034318;28;20788;-70
2023/10/13 05:47:46;;;;;;;37.77;29.47;;;16.80;99.90;;;;;;5016263;28;20488;-70
2023/10/13 05:50:49;;;;;;;38.87;29.47;;;16.80;99.90;;;;;;5017339;28;20532;-70
2023/10/13 06:29:19;;;;;;;31.33;25.73;;;16.80;99.90;;;;;;5034143;28;20476;-69
2023/10/13 06:31:49;;;;;;;35.67;27.07;;;16.90;99.90;;;;;;5033569;28;20486;-70
2023/10/13 06:34:20;;;;;;;33.33;27.97;;;16.90;99.90;;;;;;5033481;28;20530;-69
2023/10/13 06:36:49;;;;;;;31.03;25.87;;;16.90;99.90;;;;;;5033515;28;20459;-70
2023/10/13 06:39:35;;;;;;;27.67;24.73;;;16.90;99.90;;;;;;5032873;28;20524;-70
2023/10/13 06:42:04;;;;;;;33.83;26.53;;;16.90;99.90;;;;;;5033399;28;20443;-69
2023/10/13 06:44:32;;;;;;;28.10;23.50;;;16.90;99.90;;;;;;5033411;28;20492;-69
2023/10/13 06:47:03;;;;;;;30.13;25.47;;;16.90;99.90;;;;;;5033120;28;20565;-70
2023/10/13 06:49:38;;;;;;;28.53;25.40;;;16.90;99.90;;;;;;5033309;28;20423;-70
2023/10/13 06:52:07;;;;;;;31.77;25.20;;;16.90;99.90;;;;;;5015688;28;20449;-70
2023/10/13 06:54:38;;;;;;;32.50;26.27;;;16.90;99.90;;;;;;5033261;28;20529;-70
2023/10/13 06:57:14;;;;;;;27.90;24.90;;;16.90;99.90;;;;;;5015630;28;21076;-70
2023/10/13 06:59:42;;;;;;;30.40;25.80;;;16.90;99.90;;;;;;5033638;28;20401;-70
2023/10/13 07:02:20;;;;;;;30.40;27.20;;;16.90;99.90;;;;;;5033806;28;20435;-70
2023/10/13 07:05:07;;;;;;;29.17;24.70;;;16.90;99.90;;;;;;5033618;28;20431;-70
2023/10/13 07:07:36;;;;;;;29.97;25.13;;;16.90;99.90;;;;;;5033366;28;20430;-70
2023/10/13 07:10:09;;;;;;;28.77;25.67;;;16.90;99.90;;;;;;5033239;28;20540;-70
2023/10/13 07:12:42;;;;;;;32.07;27.63;;;16.90;99.90;;;;;;5015586;28;20428;-70
2023/10/13 07:15:19;;;;;;;31.63;27.17;;;16.90;99.90;;;;;;5033371;28;20500;-70
2023/10/13 07:17:54;;;;;;;33.67;28.17;;;16.90;99.90;;;;;;5033891;28;20423;-70
2023/10/13 07:20:24;;;;;;;32.00;27.30;;;16.90;99.90;;;;;;5033592;28;20419;-70
2023/10/13 07:23:02;;;;;;;32.70;28.00;;;16.90;99.90;;;;;;5033343;28;20772;-70
2023/10/13 07:25:32;;;;;;;34.20;28.43;;;16.90;99.90;;;;;;5033297;28;20437;-70
2023/10/13 07:28:01;;;;;;;33.10;27.77;;;16.90;99.90;;;;;;5033227;28;20802;-70
2023/10/13 07:30:30;;;;;;;33.13;29.63;;;16.90;99.90;;;;;;5033486;28;20761;-70
2023/10/13 07:32:59;;;;;;;32.97;29.47;;;16.90;99.90;;;;;;5033115;28;20418;-70
2023/10/13 07:35:31;;;;;;;31.97;28.30;;;16.90;99.90;;;;;;5032853;28;20455;-70
2023/10/13 07:38:00;;;;;;;32.13;28.53;;;16.90;99.90;;;;;;5033764;28;20415;-70
2023/10/13 07:40:40;;;;;;;33.70;30.10;;;17.00;99.90;;;;;;5033312;28;20418;-70
2023/10/13 07:43:10;;;;;;;28.90;24.87;;;16.90;99.90;;;;;;5033548;28;20419;-70
2023/10/13 07:45:40;;;;;;;29.33;25.60;;;16.90;99.90;;;;;;5033264;28;20447;-70
2023/10/13 07:48:12;;;;;;;27.90;24.90;;;16.90;99.90;;;;;;5032669;28;20527;-71
2023/10/13 07:50:41;;;;;;;25.13;22.60;;;16.90;99.90;;;;;;5035072;28;20426;-70
2023/10/13 07:53:22;;;;;;;25.17;22.67;;;16.90;99.90;;;;;;5036771;28;20796;-70
2023/10/13 07:55:55;;;;;;;25.80;23.00;;;16.90;99.90;;;;;;5036587;28;20450;-70
2023/10/13 07:58:25;;;;;;;25.23;22.60;;;16.90;99.90;;;;;;5036515;28;20833;-70
2023/10/13 08:01:07;;;;;;;23.30;21.10;;;16.90;99.90;;;;;;5036772;28;20746;-70
2023/10/13 08:03:43;;;;;;;21.60;19.40;;;17.00;99.90;;;;;;5036568;28;20406;-70
2023/10/13 08:06:20;;;;;;;24.50;21.90;;;17.00;99.90;;;;;;5036484;28;20458;-70
2023/10/13 08:08:57;;;;;;;22.90;20.27;;;17.00;99.90;;;;;;5037135;28;20415;-70
2023/10/13 08:11:24;;;;;;;21.27;19.37;;;17.00;99.90;;;;;;5036612;28;20429;-69
2023/10/13 08:13:58;;;;;;;20.47;18.57;;;17.00;99.90;;;;;;5036261;28;20512;-70
2023/10/13 08:16:52;;;;;;;19.40;17.43;;;17.10;99.90;;;;;;5036910;28;20450;-70
2023/10/13 08:19:26;;;;;;;22.03;19.70;;;17.10;99.90;;;;;;5036318;28;20398;-70
2023/10/13 08:21:58;;;;;;;19.07;17.07;;;17.10;99.90;;;;;;5018306;28;20836;-70
2023/10/13 08:24:29;;;;;;;18.43;16.53;;;17.20;99.90;;;;;;5018431;28;20562;-70
2023/10/13 08:30:26;;;;;;;17.73;15.90;;;17.20;99.90;;;;;;5036309;28;20422;-69
2023/10/13 08:32:54;;;;;;;17.83;16.07;;;17.30;99.90;;;;;;5035754;28;20786;-70
2023/10/13 08:35:33;;;;;;;15.07;13.50;;;17.30;99.90;;;;;;5036171;28;20549;-70
2023/10/13 08:38:13;;;;;;;15.90;12.27;;;17.30;99.90;;;;;;5036355;28;20901;-70
2023/10/13 08:43:50;;;;;;;13.57;12.10;;;17.40;99.90;;;;;;5036209;28;20404;-70
2023/10/13 08:46:28;;;;;;;15.53;12.77;;;17.40;99.90;;;;;;5036120;28;20492;-68
2023/10/13 08:49:15;;;;;;;15.33;11.33;;;17.50;99.90;;;;;;5036174;28;20499;-69
2023/10/13 08:51:45;;;;;;;19.20;11.97;;;17.50;99.90;;;;;;5036549;28;20394;-69
2023/10/13 08:54:33;;;;;;;11.47;10.27;;;17.50;99.90;;;;;;5036424;28;20414;-70
2023/10/13 08:57:19;;;;;;;13.17;11.77;;;17.50;99.90;;;;;;5035835;28;20440;-70
2023/10/13 08:59:53;;;;;;;11.60;10.40;;;17.50;99.90;;;;;;5036144;28;20573;-69
2023/10/13 09:02:59;;;;;;;11.33;10.33;;;17.50;99.90;;;;;;5035454;28;20394;-69
2023/10/13 09:07:55;;;;;;;12.70;11.40;;;17.50;99.90;;;;;;5017813;28;20474;-70
2023/10/13 09:10:32;;;;;;;11.83;10.63;;;17.50;99.90;;;;;;5035388;28;20413;-70
2023/10/13 09:13:11;;;;;;;13.30;11.93;;;17.60;99.90;;;;;;5035506;28;20910;-70
2023/10/13 09:21:43;;;;;;;13.30;11.57;;;17.60;99.90;;;;;;5035968;28;20398;-69
2023/10/13 09:24:29;;;;;;;13.70;12.47;;;17.60;99.90;;;;;;5035586;28;20414;-69
2023/10/13 09:27:01;;;;;;;13.47;12.23;;;17.60;99.90;;;;;;5035506;28;20760;-69
2023/10/13 09:29:29;;;;;;;18.50;14.90;;;17.70;99.90;;;;;;5035582;28;20549;-70
2023/10/13 09:32:03;;;;;;;15.87;12.90;;;17.70;99.90;;;;;;5035059;28;20443;-70
2023/10/13 09:34:33;;;;;;;13.30;11.90;;;17.70;99.90;;;;;;5035418;28;20422;-69
2023/10/13 09:37:04;;;;;;;14.77;13.00;;;17.70;99.90;;;;;;5017279;28;20448;-70
2023/10/13 09:39:41;;;;;;;14.80;13.30;;;17.80;99.90;;;;;;5035009;28;20413;-70
2023/10/13 09:42:10;;;;;;;18.03;14.10;;;17.80;99.90;;;;;;5035156;28;20426;-70
2023/10/13 09:44:40;;;;;;;15.80;14.10;;;17.80;99.90;;;;;;5035281;28;20415;-69
2023/10/13 09:47:17;;;;;;;14.70;13.30;;;17.90;99.90;;;;;;5034666;28;20459;-71
2023/10/13 09:49:49;;;;;;;16.73;14.97;;;17.90;99.90;;;;;;5035346;28;20523;-70
2023/10/13 09:52:24;;;;;;;17.30;12.60;;;17.90;99.90;;;;;;5034964;28;20474;-70
2023/10/13 09:55:02;;;;;;;14.87;13.30;;;18.00;99.90;;;;;;5035037;28;20910;-70
2023/10/13 09:57:40;;;;;;;15.13;13.63;;;18.00;99.90;;;;;;5034737;28;20811;-71
2023/10/13 10:03:19;;;;;;;15.27;13.97;;;18.10;99.90;;;;;;5112148;27;20562;-71
2023/10/13 10:06:03;;;;;;;15.10;13.60;;;18.20;99.90;;;;;;5111448;28;20466;-72
2023/10/13 10:08:37;;;;;;;15.67;14.23;;;18.20;99.90;;;;;;5111139;28;20907;-71
2023/10/13 10:11:45;;;;;;;18.97;17.03;;;18.30;99.90;;;;;;5109793;28;20414;-71
2023/10/13 10:14:20;;;;;;;17.30;15.73;;;18.40;99.90;;;;;;5111642;28;20426;-72
2023/10/13 10:17:07;;;;;;;17.43;14.33;;;18.40;99.90;;;;;;5111264;28;20493;-72
2023/10/13 10:19:48;;;;;;;16.00;14.60;;;18.50;99.90;;;;;;5111254;28;20397;-72
2023/10/13 10:22:33;;;;;;;17.00;15.50;;;18.60;99.90;;;;;;5110792;28;20433;-72
2023/10/13 10:25:03;;;;;;;16.53;14.83;;;18.60;99.90;;;;;;5111079;28;20843;-72
2023/10/13 10:27:32;;;;;;;17.60;16.10;;;18.60;99.90;;;;;;5109430;28;20444;-72
2023/10/13 10:30:03;;;;;;;15.80;14.50;;;18.70;99.90;;;;;;5111144;28;20463;-72
2023/10/13 10:32:36;;;;;;;17.37;15.53;;;18.80;99.90;;;;;;5110620;28;20982;-72
2023/10/13 10:35:14;;;;;;;16.73;15.13;;;18.80;99.90;;;;;;5110809;28;20413;-72
2023/10/13 10:37:47;;;;;;;15.90;14.40;;;18.90;99.90;;;;;;5110835;28;20401;-72
2023/10/13 10:40:33;;;;;;;19.73;14.80;;;18.90;99.90;;;;;;5110756;28;20759;-72
2023/10/13 10:43:03;;;;;;;14.57;13.07;;;19.00;99.90;;;;;;5110674;28;20792;-72
2023/10/13 10:45:50;;;;;;;17.07;13.73;;;19.00;99.90;;;;;;5110620;28;20444;-72
2023/10/13 10:48:20;;;;;;;15.90;14.20;;;19.10;99.90;;;;;;5110520;28;20940;-72
2023/10/13 10:50:57;;;;;;;15.50;12.70;;;19.10;99.90;;;;;;5109016;28;20862;-72
2023/10/13 10:53:33;;;;;;;13.77;12.37;;;19.20;99.90;;;;;;5110515;28;20428;-71
2023/10/13 10:56:19;;;;;;;14.23;11.80;;;19.20;99.90;;;;;;5110320;28;20794;-72
2023/10/13 10:58:48;;;;;;;11.53;10.33;;;19.20;99.90;;;;;;5110697;28;20395;-72
2023/10/13 11:01:20;;;;;;;13.40;11.10;;;19.20;99.90;;;;;;5110094;28;20443;-72
2023/10/13 11:03:58;;;;;;;17.37;11.80;;;19.30;99.90;;;;;;5108836;28;20439;-71
2023/10/13 11:06:28;;;;;;;10.47;9.47;;;19.30;99.90;;;;;;5108654;28;20979;-72
2023/10/13 11:09:04;;;;;;;11.93;9.27;;;19.30;99.90;;;;;;5108603;28;20813;-72
2023/10/13 11:11:35;;;;;;;10.43;9.40;;;19.40;99.90;;;;;;5109875;28;20510;-72
2023/10/13 11:14:22;;;;;;;10.33;9.23;;;19.40;99.90;;;;;;5098494;28;20883;-70
2023/10/13 11:16:53;;;;;;;11.23;9.07;;;19.50;99.90;;;;;;5096137;28;20541;-72
2023/10/13 11:19:27;;;;;;;14.50;9.93;;;19.50;99.90;;;;;;5096120;28;20467;-72
2023/10/13 11:21:57;;;;;;;13.57;9.30;;;19.60;99.90;;;;;;5096137;28;20459;-72
2023/10/13 11:24:26;;;;;;;12.50;8.00;;;19.60;99.90;;;;;;5096033;28;20447;-72
2023/10/13 11:26:54;;;;;;;12.73;8.17;;;19.60;99.90;;;;;;5095872;28;20463;-72
2023/10/13 11:29:33;;;;;;;13.00;8.33;;;19.60;99.90;;;;;;5094660;28;20423;-72
2023/10/13 11:32:02;;;;;;;14.17;9.00;;;19.70;99.90;;;;;;5096235;28;20774;-72
2023/10/13 11:34:40;;;;;;;14.27;8.37;;;19.70;99.90;;;;;;5096076;28;20532;-72
2023/10/13 11:39:55;;;;;;;9.77;7.57;;;19.80;99.90;;;;;;5095844;28;20435;-72
2023/10/13 11:42:26;;;;;;;12.20;7.93;;;19.90;99.90;;;;;;5096316;28;20500;-71
2023/10/13 11:45:15;;;;;;;12.80;8.03;;;19.90;99.90;;;;;;5095681;28;20421;-72
2023/10/13 11:47:58;;;;;;;10.53;7.90;;;19.90;99.90;;;;;;5095912;28;20451;-72
2023/10/13 11:50:33;;;;;;;12.73;8.13;;;20.00;99.90;;;;;;5095881;28;20396;-72
2023/10/13 11:53:07;;;;;;;10.60;7.23;;;20.00;99.90;;;;;;5095577;28;20452;-72
2023/10/13 11:55:36;;;;;;;13.47;7.60;;;20.10;99.90;;;;;;5095767;28;20509;-72
2023/10/13 11:58:05;;;;;;;8.47;7.40;;;20.10;99.90;;;;;;5095496;28;20440;-72
2023/10/13 12:06:18;;;;;;;12.20;7.40;;;20.30;99.90;;;;;;5095667;28;20474;-72
2023/10/13 12:08:52;;;;;;;13.73;8.57;;;20.40;99.90;;;;;;5095535;28;20408;-72
2023/10/13 12:11:32;;;;;;;12.20;7.63;;;20.50;99.90;;;;;;5095476;28;20429;-72
2023/10/13 12:14:11;;;;;;;12.67;8.50;;;20.50;99.90;;;;;;5093900;28;20541;-72
2023/10/13 12:16:40;;;;;;;15.87;8.57;;;20.50;99.90;;;;;;5094994;28;20448;-72
2023/10/13 12:19:11;;;;;;;10.37;7.20;;;20.60;99.90;;;;;;5095521;28;20432;-72
2023/10/13 12:21:40;;;;;;;10.40;6.90;;;20.60;99.90;;;;;;5095231;28;20896;-72
2023/10/13 12:24:21;;;;;;;14.03;7.10;;;20.60;99.90;;;;;;5094875;28;20468;-72
2023/10/13 12:26:55;;;;;;;10.00;7.00;;;20.70;99.90;;;;;;5093351;28;20899;-73
2023/10/13 12:29:28;;;;;;;9.67;6.90;;;20.70;99.90;;;;;;5094960;28;20432;-72
2023/10/13 12:32:07;;;;;;;11.83;6.93;;;20.70;99.90;;;;;;5095084;28;20417;-73
2023/10/13 12:34:59;;;;;;;12.83;7.53;;;20.70;99.90;;;;;;5093404;28;20455;-72
2023/10/13 12:37:49;;;;;;;8.43;6.70;;;20.70;99.90;;;;;;5094935;28;20448;-72
2023/10/13 12:49:03;;;;;;;14.60;7.30;;;20.90;99.90;;;;;;5094863;28;20425;-72
2023/10/13 12:51:51;;;;;;;11.87;7.53;;;20.90;99.90;;;;;;5094454;28;20416;-72
2023/10/13 12:54:27;;;;;;;9.10;7.53;;;20.90;99.90;;;;;;5094405;28;20424;-72
2023/10/13 12:56:57;;;;;;;11.03;6.97;;;20.90;99.90;;;;;;5094341;28;20479;-72
2023/10/13 12:59:27;;;;;;;12.73;8.27;;;20.90;99.90;;;;;;5094304;28;20451;-72
2023/10/13 13:01:55;;;;;;;10.47;8.00;;;21.00;99.90;;;;;;5094027;28;20519;-73
2023/10/13 13:04:27;;;;;;;12.27;7.47;;;21.00;99.90;;;;;;5092783;28;20502;-73
2023/10/13 13:06:56;;;;;;;11.00;7.30;;;20.90;99.90;;;;;;5092806;28;20464;-73
2023/10/13 13:09:26;;;;;;;10.27;8.27;;;20.90;99.90;;;;;;5092751;28;20506;-73
2023/10/13 13:11:57;;;;;;;8.20;6.70;;;20.90;99.90;;;;;;5092779;28;20485;-73
2023/10/13 13:14:29;;;;;;;9.23;7.17;;;20.90;99.90;;;;;;5092745;28;20809;-73
2023/10/13 13:17:04;;;;;;;11.53;7.83;;;20.90;99.90;;;;;;5094274;28;20456;-73
2023/10/13 13:19:35;;;;;;;7.47;6.33;;;20.90;99.90;;;;;;5094191;28;20799;-73
2023/10/13 13:22:05;;;;;;;12.50;7.03;;;21.00;99.90;;;;;;5093915;28;20424;-73
2023/10/13 13:24:33;;;;;;;11.43;7.50;;;21.00;99.90;;;;;;5092460;28;21049;-72
2023/10/13 13:27:05;;;;;;;11.60;6.57;;;21.00;99.90;;;;;;5092422;28;20456;-73
2023/10/13 13:29:37;;;;;;;13.87;7.53;;;21.00;99.90;;;;;;5093748;28;20425;-73
2023/10/13 13:32:16;;;;;;;9.53;6.53;;;21.00;99.90;;;;;;5093903;28;20413;-73
2023/10/13 13:34:54;;;;;;;12.40;7.60;;;21.00;99.90;;;;;;5094182;28;20416;-72
2023/10/13 13:37:22;;;;;;;10.47;8.13;;;21.10;99.90;;;;;;5093420;28;20551;-72
2023/10/13 13:39:52;;;;;;;10.43;7.63;;;21.10;99.90;;;;;;5093626;28;20436;-72
2023/10/13 13:42:21;;;;;;;16.60;8.30;;;21.20;99.90;;;;;;5093603;28;20928;-72
2023/10/13 13:44:51;;;;;;;12.90;7.63;;;21.20;99.90;;;;;;5092192;28;20555;-72
2023/10/13 13:47:19;;;;;;;12.30;7.30;;;21.20;99.90;;;;;;5092176;28;20537;-72
2023/10/13 13:49:51;;;;;;;7.97;6.50;;;21.20;99.90;;;;;;5092163;28;20450;-73
2023/10/13 13:52:33;;;;;;;10.77;7.97;;;21.30;99.90;;;;;;5092557;28;20498;-72
2023/10/13 13:55:02;;;;;;;13.53;7.67;;;21.30;99.90;;;;;;5092129;28;20456;-72
2023/10/13 13:57:31;;;;;;;8.30;7.20;;;21.30;99.90;;;;;;5093264;28;20458;-72
2023/10/13 14:00:00;;;;;;;11.93;7.20;;;21.30;99.90;;;;;;5093614;28;20438;-72
2023/10/13 14:02:36;;;;;;;11.30;7.83;;;21.40;99.90;;;;;;5093168;28;20859;-72
2023/10/13 14:05:06;;;;;;;12.83;7.53;;;21.50;99.90;;;;;;5091934;28;20444;-72
2023/10/13 14:07:35;;;;;;;10.63;7.47;;;21.50;99.90;;;;;;5093325;28;20467;-71
2023/10/13 14:10:06;;;;;;;12.10;6.90;;;21.50;99.90;;;;;;5093284;28;20436;-72
2023/10/13 14:12:41;;;;;;;12.27;7.53;;;21.50;99.90;;;;;;5093523;28;20414;-72
2023/10/13 14:15:23;;;;;;;11.80;6.83;;;21.60;99.90;;;;;;5093701;28;20428;-73
2023/10/13 14:17:51;;;;;;;10.63;7.60;;;21.60;99.90;;;;;;5092406;28;20836;-72
2023/10/13 14:20:20;;;;;;;10.03;6.87;;;21.60;99.90;;;;;;5093949;28;20429;-72
2023/10/13 14:22:49;;;;;;;12.70;7.90;;;21.60;99.90;;;;;;5093799;28;20916;-73
2023/10/13 14:25:17;;;;;;;10.33;7.03;;;21.70;99.90;;;;;;5093114;28;20527;-73
2023/10/13 14:27:46;;;;;;;12.30;7.37;;;21.70;99.90;;;;;;5093145;28;20436;-73
2023/10/13 14:30:20;;;;;;;10.20;6.97;;;21.70;99.90;;;;;;5093318;28;20440;-72
2023/10/13 14:32:48;;;;;;;11.33;7.70;;;21.70;99.90;;;;;;5093486;28;20757;-72
2023/10/13 14:35:16;;;;;;;10.27;8.10;;;21.80;99.90;;;;;;5093325;28;20961;-72
2023/10/13 14:37:45;;;;;;;10.33;6.97;;;21.70;99.90;;;;;;5092954;28;20840;-72
2023/10/13 14:40:15;;;;;;;8.30;6.77;;;21.80;99.90;;;;;;5091664;28;20445;-72
2023/10/13 14:42:44;;;;;;;10.57;7.30;;;21.80;99.90;;;;;;5091723;28;20475;-72
2023/10/13 14:45:13;;;;;;;9.20;7.67;;;21.80;99.90;;;;;;5093088;28;20884;-72
2023/10/13 14:47:43;;;;;;;11.80;8.83;;;21.80;99.90;;;;;;5091862;28;20451;-72
2023/10/13 14:50:19;;;;;;;13.03;7.53;;;21.80;99.90;;;;;;5095443;28;20452;-72
2023/10/13 14:52:48;;;;;;;9.87;7.73;;;21.80;99.90;;;;;;5097018;28;20886;-72
2023/10/13 14:55:19;;;;;;;10.93;7.80;;;21.80;99.90;;;;;;5095357;28;20864;-73
2023/10/13 14:57:49;;;;;;;11.50;8.10;;;21.80;99.90;;;;;;5097118;28;20473;-73
2023/10/13 15:00:24;;;;;;;15.10;7.83;;;21.70;99.90;;;;;;5096841;28;20420;-72
2023/10/13 15:02:55;;;;;;;14.13;8.63;;;21.80;99.90;;;;;;5096520;28;20439;-72
2023/10/13 15:05:24;;;;;;;8.83;7.33;;;21.70;99.90;;;;;;5096597;28;20543;-72
2023/10/13 15:07:52;;;;;;;11.47;8.13;;;21.70;99.90;;;;;;5096688;28;20431;-72
2023/10/13 15:10:20;;;;;;;10.70;8.33;;;21.70;99.90;;;;;;5096332;28;20830;-72
2023/10/13 15:12:49;;;;;;;10.57;7.17;;;21.70;99.90;;;;;;5096293;28;20797;-72
2023/10/13 15:15:19;;;;;;;12.13;6.80;;;21.70;99.90;;;;;;5096132;28;20424;-72